AirNav   Bose Proflight and A20 aviation headeets
 
 597 users online  

0NM0 Columbus Municipal Airport
Columbus, New Mexico, USA

GOING TO COLUMBUS?


FAA INFORMATION EFFECTIVE 31 JANUARY 2019

Location

FAA Identifier: 0NM0
Lat/Long: 31-49-25.3610N / 107-37-37.0820W
31-49.422683N / 107-37.618033W
31.8237114 / -107.6269672
(estimated)
Elevation: 4024 ft. / 1227 m (estimated)
Variation: 11E (1985)
From city: 1 mile SE of COLUMBUS, NM
Time zone: UTC -7 (UTC -6 during Daylight Saving Time)
Zip code: 88029

Airport Operations

Airport use: Private use. Permission required prior to landing
Activation date: 08/1941
Control tower: no
ARTCC: ALBUQUERQUE CENTER
FSS: ALBUQUERQUE FLIGHT SERVICE STATION
Attendance: UNATNDD
Wind indicator: yes
Segmented circle: no

Nearby radio navigation aids

VOR radial/distance  VOR name  Freq  Var
CUSr264/2.7COLUMBUS VOR/DME111.2012E
DMNr170/27.1DEMING VORTAC108.6012E

Airport Services

Fuel available: 80
Airframe service: NONE
Powerplant service: NONE
Bottled oxygen: NONE
Bulk oxygen: NONE

Runway Information

Runway 8/26

Dimensions: 4210 x 250 ft. / 1283 x 76 m
CENTER 50FT GRADED.
Surface: gravel
RUNWAY 8  RUNWAY 26
Gradient: 0.5%0.5%
Traffic pattern: leftleft
Markings: NSTDNSTD
Runway end identifier lights: nono
Obstructions: pline, 1150 ft. from runway, 34:1 slope to clearnone

Airport Ownership and Management from official FAA records

Ownership: Privately-owned
Owner: AMEN WARDY
1201 NORTH MESA
EL PASO, TX 79902
Manager: AMEN WARDY
1201 NORTH MESA
EL PASO, TX 79902
Phone 915-584-0505

Airport Operational Statistics

Aircraft based on the field: 4
Single engine airplanes: 4
    

Instrument Procedures

There are no published instrument procedures at 0NM0.

Some nearby airports with instrument procedures:

KDMN - Deming Municipal Airport (27 nm N)
KLRU - Las Cruces International Airport (45 nm NE)
KDNA - Dona Ana County International Jetport Airport (47 nm E)
KSVC - Grant County Airport (56 nm NW)
KBIF - Biggs Army Airfield (Fort Bliss) (64 nm E)
 
Loc | Ops | Rwys | IFR | FBO | Links
Com | Nav | Svcs | Stats | Notes

Chandler Aviation LLC
 
Area around 0NM0 (Columbus Municipal Airport)
 
Road maps at: MapQuest Bing Google
 
Aerial photo
No photo
 
Sectional chart

 
Airport distance calculator
Flying to Columbus Municipal Airport? Find the distance to fly.

From to 0NM0

Sunrise and sunset
Times for 22-Feb-2019
 Local
(UTC-7)
 Zulu
(UTC)
Morning civil twilight06:2213:22
Sunrise06:4613:46
Sunset18:0201:02
Evening civil twilight18:2601:26

Current date and time
Zulu (UTC)  23-Feb-2019 05:11:13
Local (UTC-7)  22-Feb-2019 22:11:13
 
METAR
KDMN 
27nm N 
230453Z AUTO 27013KT 10SM CLR 00/M02 A2996 RMK AO2 SLP125 T00001022
KLRU 
45nm NE 
230455Z AUTO 25015G19KT 10SM CLR 01/00 A2994 RMK AO2 T00110000
KDNA 
47nm E 
230455Z AUTO 25012G17KT 10SM SCT110 01/M01 A2996 RMK AO2
TAF
KDMN 
27nm N 
221727Z 2218/2318 20021G31KT P6SM VCSH BKN040 FM222100 26022G32KT P6SM VCSH SCT015 BKN025 TEMPO 2221/2301 3SM -SHRASN BKN010 FM230200 26017G27KT P6SM FEW030 SCT080 FM231000 27014G24KT P6SM SKC
NOTAMs
Click for the latest NOTAMs
NOTAMs are issued by the DoD/FAA and will open in a separate window not controlled by AirNav.

 

 
 

Would you like to see your business listed on this page?

 If your business provides an interesting product or service to pilots, flight crews, aircraft, or users of the Columbus Municipal Airport, you should consider listing it here.  To start the listing process, click on the button below
 
Add a business
 

Other Pages about Columbus Municipal Airport

Update a link
 
Copyright © AirNav, LLC. All rights reserved. Privacy Policy  Contact